Comandante Luis Piedra Buena, Argentina
Current Conditions -  °F | °C
As of 10:00 PM on Monday 24 Nov 2014 (Local Time) from SAWG Reporting Station
Clear Clear  
Wind Chill: 52°   Ceiling: Unl
Heat Index: 52°   Visibility: 6mi
Dew Point: 30°   Wind: 32mph
Humidity: 44%   Direction: 250°WSW
Pressure: 29.44"   Gusts: 38mph
Location:  49.98°S, 68.9°W
Report Text: SAWG 250100Z 25028G33KT CAVOK 11/M01 Q0997
Loading
Personal Weather Stations






























Interactive Weather Map New forecast layout! Learn more

10-Day Weather Forecast

Advertisements
Track Severe Weather on mobile